Time;durP1;ratioP1;P1;durP2;ratioP2;P2;SDS_P1;SDS_P2;PMS_P1;PMS_P2;Temp;Humidity;BMP_temperature;BMP_pressure;BME280_temperature;BME280_humidity;BME280_pressure;Samples;Min_cycle;Max_cycle;Signal;HPM_P1;HPM_P2
2023/09/25 00:01:05;;;;;;;4.75;2.60;;;;;;;;;;2104506;28;20028;-62
2023/09/25 00:02:24;;;;;;;4.07;3.10;;;;;;;;;;2105309;28;20032;-61
2023/09/25 00:03:43;;;;;;;5.07;2.50;;;;;;;;;;2103921;28;20056;-63
2023/09/25 00:05:02;;;;;;;4.93;2.67;;;;;;;;;;2103057;28;21755;-63
2023/09/25 00:06:21;;;;;;;5.65;2.92;;;;;;;;;;2101818;28;20062;-63
2023/09/25 00:07:40;;;;;;;4.22;2.78;;;;;;;;;;2102910;28;20031;-63
2023/09/25 00:08:59;;;;;;;6.20;2.80;;;;;;;;;;2102418;28;20488;-63
2023/09/25 00:10:18;;;;;;;6.32;3.03;;;;;;;;;;2103866;28;20112;-63
2023/09/25 00:11:37;;;;;;;5.03;3.20;;;;;;;;;;2103701;28;20104;-62
2023/09/25 00:12:56;;;;;;;6.05;2.88;;;;;;;;;;2102916;28;20064;-63
2023/09/25 00:14:15;;;;;;;6.82;2.67;;;;;;;;;;2103374;28;20028;-62
2023/09/25 00:15:34;;;;;;;5.57;3.08;;;;;;;;;;2102921;28;20028;-63
2023/09/25 00:16:53;;;;;;;9.05;3.65;;;;;;;;;;2103718;28;20025;-63
2023/09/25 00:18:14;;;;;;;3.40;3.00;;;;;;;;;;2102295;28;20463;-63
2023/09/25 00:19:33;;;;;;;6.30;2.83;;;;;;;;;;2103105;28;20036;-63
2023/09/25 00:20:53;;;;;;;7.20;2.63;;;;;;;;;;2104759;28;20028;-63
2023/09/25 00:22:12;;;;;;;5.75;3.22;;;;;;;;;;2103160;28;20058;-63
2023/09/25 00:23:31;;;;;;;4.70;2.83;;;;;;;;;;2100300;28;20591;-63
2023/09/25 00:24:50;;;;;;;5.13;2.80;;;;;;;;;;2099971;28;20036;-63
2023/09/25 00:26:09;;;;;;;6.43;2.88;;;;;;;;;;2103402;28;20036;-63
2023/09/25 00:27:31;;;;;;;3.42;2.95;;;;;;;;;;2103140;28;20032;-63
2023/09/25 00:28:50;;;;;;;4.45;2.72;;;;;;;;;;2104318;28;20411;-63
2023/09/25 00:30:09;;;;;;;10.93;3.30;;;;;;;;;;2101524;28;20040;-63
2023/09/25 00:31:28;;;;;;;7.47;3.38;;;;;;;;;;2103873;28;20028;-63
2023/09/25 00:32:50;;;;;;;5.78;3.28;;;;;;;;;;2102915;28;20035;-63
2023/09/25 00:34:10;;;;;;;7.78;2.90;;;;;;;;;;2103238;28;20063;-63
2023/09/25 00:35:29;;;;;;;5.80;2.95;;;;;;;;;;2102150;28;20066;-63
2023/09/25 00:36:48;;;;;;;3.95;2.85;;;;;;;;;;2102728;28;20048;-63
2023/09/25 00:38:07;;;;;;;5.68;3.10;;;;;;;;;;2102019;28;20512;-63
2023/09/25 00:39:26;;;;;;;5.85;3.50;;;;;;;;;;2103081;28;20028;-63
2023/09/25 00:40:45;;;;;;;7.65;3.40;;;;;;;;;;2102948;28;20020;-63
2023/09/25 00:42:05;;;;;;;5.88;3.20;;;;;;;;;;2102459;28;20885;-63
2023/09/25 00:43:24;;;;;;;4.15;3.15;;;;;;;;;;2102909;28;20041;-63
2023/09/25 00:44:43;;;;;;;6.95;3.10;;;;;;;;;;2104350;28;20028;-63
2023/09/25 00:46:02;;;;;;;3.85;2.95;;;;;;;;;;2098666;28;20494;-63
2023/09/25 00:47:21;;;;;;;7.47;2.90;;;;;;;;;;2096218;28;20028;-63
2023/09/25 00:48:42;;;;;;;9.18;3.65;;;;;;;;;;2103136;28;20020;-63
2023/09/25 00:50:04;;;;;;;5.03;2.92;;;;;;;;;;2103136;28;20032;-61
2023/09/25 00:51:23;;;;;;;5.30;2.75;;;;;;;;;;2101823;28;20036;-63
2023/09/25 00:52:43;;;;;;;3.95;2.85;;;;;;;;;;2103835;28;20028;-63
2023/09/25 00:54:02;;;;;;;6.88;3.10;;;;;;;;;;2102693;28;20023;-63
2023/09/25 00:55:20;;;;;;;7.03;2.95;;;;;;;;;;2103167;28;20459;-63
2023/09/25 00:56:39;;;;;;;7.47;3.25;;;;;;;;;;2104644;28;20405;-63
2023/09/25 00:57:59;;;;;;;5.68;3.30;;;;;;;;;;2098335;28;20482;-63
2023/09/25 00:59:18;;;;;;;6.82;2.95;;;;;;;;;;2100534;28;20029;-62
2023/09/25 01:00:38;;;;;;;6.00;3.20;;;;;;;;;;2104489;28;20110;-63
2023/09/25 01:01:57;;;;;;;6.68;3.08;;;;;;;;;;2102792;28;20024;-62
2023/09/25 01:03:16;;;;;;;7.65;3.38;;;;;;;;;;2103086;28;20024;-62
2023/09/25 01:04:35;;;;;;;5.95;2.85;;;;;;;;;;2103628;28;20024;-62
2023/09/25 01:05:54;;;;;;;5.38;3.20;;;;;;;;;;2098709;28;20103;-62
2023/09/25 01:07:13;;;;;;;6.47;3.30;;;;;;;;;;2099617;28;20508;-62
2023/09/25 01:08:32;;;;;;;5.15;3.08;;;;;;;;;;2102122;28;20492;-63
2023/09/25 01:10:07;;;;;;;8.05;3.10;;;;;;;;;;2104838;28;20028;-63
2023/09/25 01:11:28;;;;;;;5.38;3.33;;;;;;;;;;2100862;28;20513;-63
2023/09/25 01:12:48;;;;;;;7.28;3.47;;;;;;;;;;2102394;28;20032;-61
2023/09/25 01:14:08;;;;;;;8.65;3.10;;;;;;;;;;2101497;28;20123;-61
2023/09/25 01:15:27;;;;;;;5.22;2.83;;;;;;;;;;2100831;28;20063;-63
2023/09/25 01:16:46;;;;;;;4.68;2.70;;;;;;;;;;2102929;28;20036;-63
2023/09/25 01:18:05;;;;;;;7.43;2.65;;;;;;;;;;2102243;28;20033;-63
2023/09/25 01:19:23;;;;;;;4.65;3.15;;;;;;;;;;2098896;28;20020;-63
2023/09/25 01:20:43;;;;;;;5.82;2.72;;;;;;;;;;2100734;28;20480;-63
2023/09/25 01:22:02;;;;;;;5.68;2.80;;;;;;;;;;2100102;28;20029;-62
2023/09/25 01:23:21;;;;;;;3.20;2.88;;;;;;;;;;2100912;28;20024;-63
2023/09/25 01:24:40;;;;;;;4.97;3.25;;;;;;;;;;2103345;28;20329;-63
2023/09/25 01:25:59;;;;;;;5.30;2.80;;;;;;;;;;2102101;28;20036;-63
2023/09/25 01:27:18;;;;;;;6.95;2.80;;;;;;;;;;2100570;28;20020;-63
2023/09/25 01:28:37;;;;;;;6.40;3.13;;;;;;;;;;2099740;28;20036;-63
2023/09/25 01:29:56;;;;;;;4.20;3.08;;;;;;;;;;2102056;28;20464;-63
2023/09/25 01:31:16;;;;;;;6.47;2.95;;;;;;;;;;2100674;28;20028;-62
2023/09/25 01:32:35;;;;;;;6.53;3.17;;;;;;;;;;2100766;28;20552;-63
2023/09/25 01:33:54;;;;;;;5.90;2.95;;;;;;;;;;2098863;28;20059;-63
2023/09/25 01:35:17;;;;;;;6.43;3.20;;;;;;;;;;2099018;28;20674;-63
2023/09/25 01:36:37;;;;;;;5.43;3.15;;;;;;;;;;2099653;28;20040;-63
2023/09/25 01:37:57;;;;;;;9.60;3.28;;;;;;;;;;2100182;28;20044;-63
2023/09/25 01:39:16;;;;;;;3.67;2.88;;;;;;;;;;2103112;28;20036;-63
2023/09/25 01:40:35;;;;;;;5.20;2.63;;;;;;;;;;2104007;28;20032;-63
2023/09/25 01:41:54;;;;;;;4.70;3.13;;;;;;;;;;2103388;28;20028;-63
2023/09/25 01:43:13;;;;;;;3.90;2.97;;;;;;;;;;2105366;28;20031;-64
2023/09/25 01:44:32;;;;;;;6.80;3.00;;;;;;;;;;2104115;28;20055;-63
2023/09/25 01:45:51;;;;;;;3.47;2.58;;;;;;;;;;2105333;28;20820;-63
2023/09/25 01:47:10;;;;;;;5.72;2.80;;;;;;;;;;2105597;28;20028;-62
2023/09/25 01:48:30;;;;;;;6.28;3.25;;;;;;;;;;2105515;28;20481;-63
2023/09/25 01:49:49;;;;;;;7.88;3.47;;;;;;;;;;2103832;28;20027;-62
2023/09/25 01:51:09;;;;;;;4.50;2.92;;;;;;;;;;2104054;28;20043;-63
2023/09/25 01:52:28;;;;;;;5.60;3.03;;;;;;;;;;2104597;28;20388;-63
2023/09/25 01:53:50;;;;;;;5.45;3.00;;;;;;;;;;2104687;28;20103;-63
2023/09/25 01:55:09;;;;;;;4.20;2.85;;;;;;;;;;2102579;28;20028;-63
2023/09/25 01:56:28;;;;;;;7.38;3.35;;;;;;;;;;2105050;28;20032;-63
2023/09/25 01:57:47;;;;;;;6.88;2.90;;;;;;;;;;2103476;28;20028;-61
2023/09/25 01:59:06;;;;;;;4.30;2.80;;;;;;;;;;2103473;28;20032;-63
2023/09/25 02:00:26;;;;;;;6.70;3.47;;;;;;;;;;2103408;28;20036;-62
2023/09/25 02:01:45;;;;;;;6.72;3.40;;;;;;;;;;2102638;28;20016;-61
2023/09/25 02:03:05;;;;;;;5.18;3.00;;;;;;;;;;2104439;28;20028;-63
2023/09/25 02:04:24;;;;;;;2.95;2.60;;;;;;;;;;2102173;28;20111;-63
2023/09/25 02:05:43;;;;;;;6.07;3.35;;;;;;;;;;2103857;28;20024;-63
2023/09/25 02:07:03;;;;;;;5.65;3.22;;;;;;;;;;2103357;28;20069;-63
2023/09/25 02:08:21;;;;;;;4.57;2.90;;;;;;;;;;2104171;28;20024;-63
2023/09/25 02:09:41;;;;;;;4.60;2.88;;;;;;;;;;2103598;28;20991;-63
2023/09/25 02:11:00;;;;;;;4.55;2.55;;;;;;;;;;2104086;28;20036;-63
2023/09/25 02:12:18;;;;;;;3.65;3.03;;;;;;;;;;2104470;28;20035;-63
2023/09/25 02:13:37;;;;;;;3.75;2.65;;;;;;;;;;2102610;28;20956;-63
2023/09/25 02:15:00;;;;;;;4.93;3.08;;;;;;;;;;2098276;28;20032;-63
2023/09/25 02:16:19;;;;;;;4.03;2.92;;;;;;;;;;2101512;28;20424;-63
2023/09/25 02:17:38;;;;;;;5.25;2.70;;;;;;;;;;2099607;28;20040;-63
2023/09/25 02:18:57;;;;;;;7.15;2.63;;;;;;;;;;2100530;28;20020;-63
2023/09/25 02:20:17;;;;;;;3.83;2.53;;;;;;;;;;2100174;28;20036;-63
2023/09/25 02:21:35;;;;;;;6.68;2.65;;;;;;;;;;2100506;28;20020;-63
2023/09/25 02:22:54;;;;;;;8.70;2.97;;;;;;;;;;2101942;28;20021;-63
2023/09/25 02:24:13;;;;;;;4.00;2.75;;;;;;;;;;2100536;28;20032;-63
2023/09/25 02:25:32;;;;;;;4.55;2.70;;;;;;;;;;2102243;28;20040;-63
2023/09/25 02:26:51;;;;;;;4.78;2.83;;;;;;;;;;2104459;28;20504;-63
2023/09/25 02:28:10;;;;;;;6.80;3.08;;;;;;;;;;2104148;28;20036;-63
2023/09/25 02:29:29;;;;;;;3.38;2.50;;;;;;;;;;2104126;28;20032;-63
2023/09/25 02:30:49;;;;;;;9.55;2.70;;;;;;;;;;2105079;28;20040;-63
2023/09/25 02:32:08;;;;;;;4.95;2.65;;;;;;;;;;2103827;28;20028;-63
2023/09/25 02:33:28;;;;;;;3.30;2.47;;;;;;;;;;2104152;28;20064;-63
2023/09/25 02:34:47;;;;;;;5.25;2.80;;;;;;;;;;2102647;28;20024;-63
2023/09/25 02:36:06;;;;;;;5.80;2.60;;;;;;;;;;2103612;28;20123;-63
2023/09/25 02:37:25;;;;;;;5.85;2.25;;;;;;;;;;2101892;28;20028;-63
2023/09/25 02:38:44;;;;;;;4.07;2.42;;;;;;;;;;2103590;28;20020;-63
2023/09/25 02:40:04;;;;;;;3.72;2.58;;;;;;;;;;2100600;28;20028;-63
2023/09/25 02:41:23;;;;;;;6.28;3.15;;;;;;;;;;2102890;28;20024;-63
2023/09/25 02:42:43;;;;;;;2.67;2.47;;;;;;;;;;2103212;28;20122;-63
2023/09/25 02:44:02;;;;;;;2.53;2.33;;;;;;;;;;2104109;28;20028;-63
2023/09/25 02:45:21;;;;;;;7.30;2.55;;;;;;;;;;2100584;28;20043;-63
2023/09/25 02:46:40;;;;;;;5.32;3.17;;;;;;;;;;2104972;28;20020;-63
2023/09/25 02:47:59;;;;;;;5.45;2.45;;;;;;;;;;2104715;28;20064;-63
2023/09/25 02:49:18;;;;;;;5.78;2.78;;;;;;;;;;2105662;28;20052;-62
2023/09/25 02:50:37;;;;;;;5.45;2.75;;;;;;;;;;2103864;28;20469;-63
2023/09/25 02:51:56;;;;;;;6.50;2.72;;;;;;;;;;2104405;28;20040;-63
2023/09/25 02:53:18;;;;;;;6.22;3.05;;;;;;;;;;2104589;28;20389;-64
2023/09/25 02:54:37;;;;;;;3.33;2.92;;;;;;;;;;2102907;28;20495;-63
2023/09/25 02:55:56;;;;;;;5.38;2.65;;;;;;;;;;2103706;28;20040;-63
2023/09/25 02:57:15;;;;;;;6.82;3.08;;;;;;;;;;2103246;28;20049;-63
2023/09/25 02:58:34;;;;;;;3.70;2.63;;;;;;;;;;2103652;28;20055;-63
2023/09/25 02:59:53;;;;;;;5.88;3.00;;;;;;;;;;2102585;28;20020;-63
2023/09/25 03:01:12;;;;;;;4.50;2.10;;;;;;;;;;2104157;28;20040;-63
2023/09/25 03:02:31;;;;;;;4.60;2.67;;;;;;;;;;2104607;28;20032;-62
2023/09/25 03:03:51;;;;;;;2.80;2.05;;;;;;;;;;2104431;28;20024;-62
2023/09/25 03:05:10;;;;;;;3.20;2.65;;;;;;;;;;2103895;28;20028;-63
2023/09/25 03:06:29;;;;;;;2.72;2.38;;;;;;;;;;2104863;28;20492;-63
2023/09/25 03:07:48;;;;;;;4.78;2.70;;;;;;;;;;2104261;28;20040;-63
2023/09/25 03:09:07;;;;;;;4.90;2.40;;;;;;;;;;2106327;28;20036;-62
2023/09/25 03:10:26;;;;;;;4.07;2.20;;;;;;;;;;2103402;28;20380;-65
2023/09/25 03:11:45;;;;;;;5.97;2.38;;;;;;;;;;2104992;28;20032;-63
2023/09/25 03:13:05;;;;;;;4.18;2.25;;;;;;;;;;2105342;28;20032;-63
2023/09/25 03:14:23;;;;;;;3.13;2.17;;;;;;;;;;2104656;28;20025;-62
2023/09/25 03:15:43;;;;;;;5.10;3.03;;;;;;;;;;2105219;28;20431;-63
2023/09/25 03:17:02;;;;;;;5.57;2.40;;;;;;;;;;2105417;28;20043;-63
2023/09/25 03:18:21;;;;;;;4.43;2.30;;;;;;;;;;2104700;28;20020;-63
2023/09/25 03:19:40;;;;;;;2.90;2.28;;;;;;;;;;2104254;28;20028;-63
2023/09/25 03:21:06;;;;;;;3.30;2.17;;;;;;;;;;2104982;28;20016;-63
2023/09/25 03:22:25;;;;;;;4.13;2.50;;;;;;;;;;2105350;28;20095;-63
2023/09/25 03:23:45;;;;;;;6.00;2.28;;;;;;;;;;2102832;28;20099;-63
2023/09/25 03:25:05;;;;;;;6.75;2.30;;;;;;;;;;2105255;28;20032;-64
2023/09/25 03:26:24;;;;;;;5.03;2.53;;;;;;;;;;2103364;28;20052;-61
2023/09/25 03:27:43;;;;;;;2.78;2.20;;;;;;;;;;2103685;28;20076;-63
2023/09/25 03:29:02;;;;;;;6.43;2.90;;;;;;;;;;2104465;28;20043;-62
2023/09/25 03:30:21;;;;;;;2.72;2.20;;;;;;;;;;2105634;28;20024;-63
2023/09/25 03:31:40;;;;;;;3.33;2.00;;;;;;;;;;2106370;28;20055;-63
2023/09/25 03:32:59;;;;;;;5.15;2.60;;;;;;;;;;2105259;28;20036;-63
2023/09/25 03:34:20;;;;;;;8.05;2.35;;;;;;;;;;2105743;28;20039;-65
2023/09/25 03:35:38;;;;;;;2.50;2.30;;;;;;;;;;2105400;28;20072;-63
2023/09/25 03:36:57;;;;;;;3.63;2.40;;;;;;;;;;2103573;28;20044;-63
2023/09/25 03:38:16;;;;;;;2.97;2.15;;;;;;;;;;2104486;28;20512;-63
2023/09/25 03:39:35;;;;;;;5.03;2.53;;;;;;;;;;2099758;28;20107;-63
2023/09/25 03:40:54;;;;;;;4.55;2.35;;;;;;;;;;2099248;28;20124;-62
2023/09/25 03:42:13;;;;;;;6.25;2.60;;;;;;;;;;2097422;28;20032;-63
2023/09/25 03:43:32;;;;;;;5.47;2.60;;;;;;;;;;2099876;28;20028;-63
2023/09/25 03:44:51;;;;;;;6.15;2.25;;;;;;;;;;2098216;28;20036;-63
2023/09/25 03:46:10;;;;;;;4.00;2.38;;;;;;;;;;2098810;28;20028;-63
2023/09/25 03:47:29;;;;;;;3.67;2.45;;;;;;;;;;2099205;28;20024;-61
2023/09/25 03:48:48;;;;;;;4.10;2.38;;;;;;;;;;2099626;28;20028;-62
2023/09/25 03:50:07;;;;;;;5.20;2.40;;;;;;;;;;2100329;28;20016;-63
2023/09/25 03:51:26;;;;;;;3.17;2.33;;;;;;;;;;2101273;28;20115;-63
2023/09/25 03:52:45;;;;;;;4.43;1.90;;;;;;;;;;2102869;28;20024;-63
2023/09/25 03:54:04;;;;;;;2.80;2.20;;;;;;;;;;2103604;28;20722;-63
2023/09/25 03:55:23;;;;;;;5.25;2.22;;;;;;;;;;2098860;28;20036;-62
2023/09/25 03:56:43;;;;;;;2.40;1.92;;;;;;;;;;2100199;28;20032;-63
2023/09/25 03:58:02;;;;;;;3.35;2.28;;;;;;;;;;2100962;28;20036;-63
2023/09/25 03:59:21;;;;;;;6.38;2.47;;;;;;;;;;2100397;28;20032;-63
2023/09/25 04:00:40;;;;;;;4.57;3.10;;;;;;;;;;2103225;28;20020;-63
2023/09/25 04:01:59;;;;;;;3.17;2.25;;;;;;;;;;2102242;28;20585;-63
2023/09/25 04:03:19;;;;;;;3.45;2.00;;;;;;;;;;2104062;28;20052;-63
2023/09/25 04:04:38;;;;;;;3.85;2.45;;;;;;;;;;2100828;28;20024;-62
2023/09/25 04:05:57;;;;;;;2.30;2.10;;;;;;;;;;2103937;28;20024;-63
2023/09/25 04:07:16;;;;;;;4.28;2.42;;;;;;;;;;2101075;28;20151;-63
2023/09/25 04:08:35;;;;;;;5.97;2.17;;;;;;;;;;2101853;28;20024;-63
2023/09/25 04:09:54;;;;;;;4.32;2.30;;;;;;;;;;2100033;28;20040;-62
2023/09/25 04:11:14;;;;;;;3.63;2.13;;;;;;;;;;2100569;28;20032;-62
2023/09/25 04:12:34;;;;;;;7.45;2.30;;;;;;;;;;2102295;28;20036;-62
2023/09/25 04:13:54;;;;;;;4.07;2.53;;;;;;;;;;2100937;28;20028;-62
2023/09/25 04:15:14;;;;;;;3.72;2.60;;;;;;;;;;2103467;28;20032;-62
2023/09/25 04:16:33;;;;;;;4.50;2.28;;;;;;;;;;2105025;28;20020;-63
2023/09/25 04:17:52;;;;;;;5.30;2.33;;;;;;;;;;2100402;28;20789;-60
2023/09/25 04:19:12;;;;;;;3.05;2.60;;;;;;;;;;2100492;28;20428;-63
2023/09/25 04:20:32;;;;;;;4.40;2.60;;;;;;;;;;2101830;28;20024;-62
2023/09/25 04:21:52;;;;;;;2.72;1.98;;;;;;;;;;2101151;28;20116;-63
2023/09/25 04:23:12;;;;;;;4.68;2.50;;;;;;;;;;2100615;28;20530;-62
2023/09/25 04:24:30;;;;;;;2.67;2.03;;;;;;;;;;2100735;28;20122;-62
2023/09/25 04:25:51;;;;;;;6.20;2.38;;;;;;;;;;2102147;28;20028;-62
2023/09/25 04:27:09;;;;;;;4.38;2.15;;;;;;;;;;2102856;28;20685;-61
2023/09/25 04:28:29;;;;;;;4.20;2.20;;;;;;;;;;2101613;28;20043;-63
2023/09/25 04:29:48;;;;;;;5.43;2.10;;;;;;;;;;2100648;28;21244;-63
2023/09/25 04:31:08;;;;;;;5.43;2.20;;;;;;;;;;2101360;28;20054;-62
2023/09/25 04:32:27;;;;;;;3.10;2.03;;;;;;;;;;2101455;28;20036;-62
2023/09/25 04:33:46;;;;;;;2.92;2.45;;;;;;;;;;2096685;28;20043;-62
2023/09/25 04:35:07;;;;;;;5.10;2.25;;;;;;;;;;2102497;28;20032;-62
2023/09/25 04:36:26;;;;;;;2.80;2.50;;;;;;;;;;2103082;28;20048;-63
2023/09/25 04:37:45;;;;;;;4.85;2.80;;;;;;;;;;2099695;28;20492;-62
2023/09/25 04:39:05;;;;;;;3.85;2.35;;;;;;;;;;2102273;28;20031;-62
2023/09/25 04:40:24;;;;;;;2.80;2.38;;;;;;;;;;2104776;28;20067;-61
2023/09/25 04:41:44;;;;;;;4.75;2.28;;;;;;;;;;2104738;28;20423;-64
2023/09/25 04:43:03;;;;;;;5.35;2.80;;;;;;;;;;2104836;28;20099;-62
2023/09/25 04:44:22;;;;;;;3.38;2.28;;;;;;;;;;2104601;28;20036;-63
2023/09/25 04:45:40;;;;;;;6.35;2.70;;;;;;;;;;2103660;28;20024;-62
2023/09/25 04:46:59;;;;;;;6.50;2.00;;;;;;;;;;2104404;28;20045;-62
2023/09/25 04:48:19;;;;;;;4.60;2.45;;;;;;;;;;2103600;28;20044;-61
2023/09/25 04:49:37;;;;;;;2.83;2.25;;;;;;;;;;2101960;28;20036;-62
2023/09/25 04:50:57;;;;;;;5.10;2.78;;;;;;;;;;2105061;28;20028;-63
2023/09/25 04:52:15;;;;;;;3.05;2.03;;;;;;;;;;2104918;28;20028;-62
2023/09/25 04:53:34;;;;;;;4.05;2.50;;;;;;;;;;2104589;28;20036;-62
2023/09/25 04:54:54;;;;;;;4.78;2.42;;;;;;;;;;2103678;28;20489;-62
2023/09/25 04:56:22;;;;;;;3.60;2.25;;;;;;;;;;2104218;28;20040;-63
2023/09/25 04:57:42;;;;;;;4.07;2.50;;;;;;;;;;2101248;28;20036;-62
2023/09/25 04:59:01;;;;;;;3.53;2.15;;;;;;;;;;2104672;28;20399;-63
2023/09/25 05:00:27;;;;;;;5.47;2.50;;;;;;;;;;2104922;28;20113;-62
2023/09/25 05:01:45;;;;;;;3.00;2.03;;;;;;;;;;2102841;28;20016;-62
2023/09/25 05:03:04;;;;;;;5.35;2.80;;;;;;;;;;2104123;28;20040;-62
2023/09/25 05:04:23;;;;;;;5.32;2.70;;;;;;;;;;2103685;28;20035;-62
2023/09/25 05:05:44;;;;;;;5.75;2.28;;;;;;;;;;2103338;28;20028;-62
2023/09/25 05:07:03;;;;;;;4.32;2.28;;;;;;;;;;2102769;28;20048;-62
2023/09/25 05:08:22;;;;;;;5.72;2.53;;;;;;;;;;2104358;28;20044;-62
2023/09/25 05:09:40;;;;;;;4.80;2.10;;;;;;;;;;2103946;28;20469;-62
2023/09/25 05:10:59;;;;;;;5.35;2.47;;;;;;;;;;2103840;28;20031;-62
2023/09/25 05:12:18;;;;;;;3.42;2.08;;;;;;;;;;2103317;28;20055;-62
2023/09/25 05:13:38;;;;;;;2.70;2.08;;;;;;;;;;2103706;28;20031;-62
2023/09/25 05:14:56;;;;;;;3.92;1.90;;;;;;;;;;2103155;28;20451;-62
2023/09/25 05:16:15;;;;;;;5.30;2.10;;;;;;;;;;2102385;28;20032;-61
2023/09/25 05:17:39;;;;;;;3.95;1.80;;;;;;;;;;2103420;28;20425;-62
2023/09/25 05:18:59;;;;;;;;;;;;;;;;;;2102704;28;20024;-61
2023/09/25 05:20:19;;;;;;;8.02;2.10;;;;;;;;;;2102312;28;19916;-62
2023/09/25 05:21:38;;;;;;;3.22;2.25;;;;;;;;;;2102311;28;20138;-62
2023/09/25 05:22:57;;;;;;;2.70;2.10;;;;;;;;;;2099421;28;20021;-63
2023/09/25 05:24:16;;;;;;;3.83;2.13;;;;;;;;;;2101668;28;20032;-62
2023/09/25 05:25:35;;;;;;;2.97;2.25;;;;;;;;;;2100950;28;20028;-62
2023/09/25 05:26:54;;;;;;;2.40;1.80;;;;;;;;;;2105516;28;20106;-62
2023/09/25 05:28:13;;;;;;;3.63;1.80;;;;;;;;;;2101685;28;20040;-62
2023/09/25 05:29:32;;;;;;;4.45;2.10;;;;;;;;;;2103547;28;20040;-62
2023/09/25 05:30:55;;;;;;;2.90;2.03;;;;;;;;;;2100439;28;20416;-62
2023/09/25 05:32:14;;;;;;;3.00;1.90;;;;;;;;;;2103393;28;20438;-62
2023/09/25 05:33:33;;;;;;;3.78;1.90;;;;;;;;;;2103713;28;20035;-62
2023/09/25 05:34:52;;;;;;;3.45;2.13;;;;;;;;;;2102767;28;20477;-62
2023/09/25 05:36:11;;;;;;;5.70;1.75;;;;;;;;;;2100600;28;20505;-62
2023/09/25 05:37:30;;;;;;;4.15;1.55;;;;;;;;;;2100428;28;20496;-61
2023/09/25 05:38:49;;;;;;;4.70;1.88;;;;;;;;;;2103662;28;20024;-62
2023/09/25 05:40:11;;;;;;;3.83;1.83;;;;;;;;;;2101628;28;20024;-61
2023/09/25 05:41:30;;;;;;;6.13;2.47;;;;;;;;;;2103305;28;20024;-62
2023/09/25 05:42:49;;;;;;;3.85;2.25;;;;;;;;;;2102013;28;20047;-62
2023/09/25 05:44:09;;;;;;;5.30;2.28;;;;;;;;;;2103399;28;20024;-62
2023/09/25 05:45:28;;;;;;;2.88;1.52;;;;;;;;;;2101217;28;20429;-62
2023/09/25 05:46:47;;;;;;;6.55;1.85;;;;;;;;;;2102600;28;20909;-61
2023/09/25 05:48:07;;;;;;;5.38;1.98;;;;;;;;;;2103138;28;20489;-63
2023/09/25 05:49:26;;;;;;;3.10;1.88;;;;;;;;;;2099222;28;20493;-63
2023/09/25 05:50:45;;;;;;;4.75;2.17;;;;;;;;;;2102581;28;20032;-63
2023/09/25 05:52:04;;;;;;;4.88;2.05;;;;;;;;;;2101868;28;20462;-63
2023/09/25 05:53:25;;;;;;;3.28;2.00;;;;;;;;;;2101662;28;20040;-63
2023/09/25 05:54:45;;;;;;;6.75;2.20;;;;;;;;;;2105196;28;20029;-63
2023/09/25 05:56:04;;;;;;;3.38;1.90;;;;;;;;;;2101661;28;20110;-63
2023/09/25 05:57:23;;;;;;;2.55;1.58;;;;;;;;;;2102577;28;20032;-65
2023/09/25 05:58:42;;;;;;;2.72;1.80;;;;;;;;;;2103784;28;20072;-63
2023/09/25 06:00:12;;;;;;;1.98;1.77;;;;;;;;;;2101761;28;20036;-64
2023/09/25 06:01:31;;;;;;;3.25;1.90;;;;;;;;;;2100269;28;20522;-63
2023/09/25 06:02:50;;;;;;;6.13;2.25;;;;;;;;;;2098434;28;20397;-63
2023/09/25 06:04:09;;;;;;;3.80;1.48;;;;;;;;;;2104207;28;20032;-63
2023/09/25 06:05:28;;;;;;;3.92;2.03;;;;;;;;;;2104549;28;20036;-63
2023/09/25 06:06:48;;;;;;;3.10;1.85;;;;;;;;;;2102836;28;20024;-63
2023/09/25 06:08:06;;;;;;;4.30;1.33;;;;;;;;;;2103445;28;20040;-63
2023/09/25 06:09:25;;;;;;;2.70;1.88;;;;;;;;;;2103912;28;20480;-63
2023/09/25 06:10:45;;;;;;;4.05;1.55;;;;;;;;;;2104262;28;20071;-63
2023/09/25 06:12:04;;;;;;;3.50;1.70;;;;;;;;;;2103808;28;20032;-63
2023/09/25 06:13:23;;;;;;;3.72;1.80;;;;;;;;;;2103706;28;20035;-63
2023/09/25 06:14:42;;;;;;;6.70;1.60;;;;;;;;;;2103319;28;20028;-63
2023/09/25 06:16:01;;;;;;;3.40;1.90;;;;;;;;;;2104241;28;20032;-63
2023/09/25 06:17:20;;;;;;;4.47;1.50;;;;;;;;;;2103707;28;20035;-63
2023/09/25 06:18:40;;;;;;;4.30;1.65;;;;;;;;;;2104515;28;20032;-63
2023/09/25 06:20:00;;;;;;;3.25;1.70;;;;;;;;;;2103857;28;20024;-63
2023/09/25 06:21:19;;;;;;;5.10;1.75;;;;;;;;;;2105188;28;20032;-63
2023/09/25 06:22:38;;;;;;;3.03;1.90;;;;;;;;;;2105849;28;20032;-64
2023/09/25 06:23:57;;;;;;;2.13;1.40;;;;;;;;;;2104631;28;20024;-63
2023/09/25 06:25:19;;;;;;;4.50;1.70;;;;;;;;;;2103576;28;20032;-63
2023/09/25 06:26:46;;;;;;;3.20;1.67;;;;;;;;;;2103971;28;20032;-63
2023/09/25 06:28:05;;;;;;;5.72;2.10;;;;;;;;;;2104390;28;20044;-64
2023/09/25 06:29:24;;;;;;;4.95;1.67;;;;;;;;;;2103541;28;20377;-63
2023/09/25 06:30:43;;;;;;;4.38;1.58;;;;;;;;;;2104216;28;20028;-63
2023/09/25 06:32:03;;;;;;;2.47;1.70;;;;;;;;;;2104649;28;20032;-63
2023/09/25 06:33:22;;;;;;;2.28;1.60;;;;;;;;;;2104333;28;20028;-63
2023/09/25 06:34:41;;;;;;;3.35;1.67;;;;;;;;;;2103488;28;20028;-63
2023/09/25 06:36:00;;;;;;;5.47;1.83;;;;;;;;;;2104022;28;20028;-63
2023/09/25 06:37:19;;;;;;;3.00;2.08;;;;;;;;;;2105199;28;20048;-63
2023/09/25 06:38:38;;;;;;;5.25;1.75;;;;;;;;;;2105413;28;20043;-63
2023/09/25 06:39:56;;;;;;;2.88;1.60;;;;;;;;;;2104671;28;20099;-63
2023/09/25 06:41:15;;;;;;;3.58;1.95;;;;;;;;;;2105252;28;20036;-63
2023/09/25 06:42:34;;;;;;;4.60;2.00;;;;;;;;;;2106693;28;20032;-63
2023/09/25 06:43:54;;;;;;;4.93;1.70;;;;;;;;;;2106209;28;20032;-63
2023/09/25 06:45:13;;;;;;;2.85;1.38;;;;;;;;;;2105795;28;20025;-63
2023/09/25 06:46:33;;;;;;;3.88;1.67;;;;;;;;;;2104663;28;20061;-63
2023/09/25 06:47:51;;;;;;;2.00;1.48;;;;;;;;;;2105221;28;20488;-64
2023/09/25 06:49:10;;;;;;;4.13;1.80;;;;;;;;;;2105516;28;20032;-63
2023/09/25 06:50:30;;;;;;;4.20;1.83;;;;;;;;;;2105130;28;20028;-65
2023/09/25 06:51:49;;;;;;;2.45;1.52;;;;;;;;;;2105513;28;20048;-63
2023/09/25 06:53:09;;;;;;;2.47;1.67;;;;;;;;;;2103543;28;20036;-63
2023/09/25 06:54:28;;;;;;;3.35;1.92;;;;;;;;;;2105813;28;20036;-63
2023/09/25 06:55:47;;;;;;;1.90;1.65;;;;;;;;;;2105841;28;20036;-63
2023/09/25 06:57:06;;;;;;;3.28;1.55;;;;;;;;;;2104220;28;20028;-63
2023/09/25 06:58:25;;;;;;;3.67;2.20;;;;;;;;;;2104859;28;20017;-63
2023/09/25 06:59:44;;;;;;;3.03;1.75;;;;;;;;;;2105680;28;20024;-63
2023/09/25 07:01:03;;;;;;;3.47;1.60;;;;;;;;;;2106429;28;20016;-63
2023/09/25 07:02:23;;;;;;;2.63;1.83;;;;;;;;;;2104840;28;20032;-63
2023/09/25 07:03:41;;;;;;;2.05;1.42;;;;;;;;;;2105567;28;20035;-64
2023/09/25 07:05:00;;;;;;;2.10;1.88;;;;;;;;;;2104796;28;20028;-63
2023/09/25 07:06:19;;;;;;;2.55;1.70;;;;;;;;;;2105933;28;20028;-63
2023/09/25 07:07:38;;;;;;;2.42;1.45;;;;;;;;;;2105410;28;20548;-63
2023/09/25 07:08:57;;;;;;;3.45;1.48;;;;;;;;;;2105400;28;20032;-63
2023/09/25 07:10:16;;;;;;;2.58;1.63;;;;;;;;;;2104649;28;20420;-63
2023/09/25 07:11:36;;;;;;;4.28;1.63;;;;;;;;;;2104899;28;20481;-63
2023/09/25 07:12:54;;;;;;;2.28;1.60;;;;;;;;;;2105923;28;20114;-63
2023/09/25 07:14:14;;;;;;;2.88;1.70;;;;;;;;;;2105607;28;20024;-63
2023/09/25 07:15:34;;;;;;;1.40;1.30;;;;;;;;;;2104639;28;20040;-63
2023/09/25 07:16:53;;;;;;;2.75;1.65;;;;;;;;;;2103431;28;20016;-63
2023/09/25 07:18:11;;;;;;;2.92;1.60;;;;;;;;;;2104859;28;20036;-63
2023/09/25 07:19:30;;;;;;;4.88;1.50;;;;;;;;;;2105866;28;20060;-63
2023/09/25 07:20:53;;;;;;;2.53;1.30;;;;;;;;;;2105931;28;20024;-63
2023/09/25 07:22:12;;;;;;;4.95;1.33;;;;;;;;;;2106352;28;20032;-63
2023/09/25 07:23:31;;;;;;;3.53;1.25;;;;;;;;;;2105401;28;20504;-63
2023/09/25 07:24:50;;;;;;;2.97;1.02;;;;;;;;;;2103984;28;20028;-63
2023/09/25 07:26:09;;;;;;;2.30;1.30;;;;;;;;;;2104184;28;20027;-63
2023/09/25 07:27:28;;;;;;;2.22;1.27;;;;;;;;;;2104880;28;20489;-63
2023/09/25 07:28:47;;;;;;;1.88;1.35;;;;;;;;;;2106272;28;20036;-63
2023/09/25 07:30:08;;;;;;;3.42;1.48;;;;;;;;;;2104784;28;20055;-63
2023/09/25 07:31:27;;;;;;;2.72;1.20;;;;;;;;;;2104625;28;20024;-63
2023/09/25 07:32:46;;;;;;;3.92;1.23;;;;;;;;;;2105001;28;20032;-63
2023/09/25 07:34:05;;;;;;;3.13;1.20;;;;;;;;;;2105412;28;20500;-63
2023/09/25 07:35:24;;;;;;;3.40;1.20;;;;;;;;;;2104112;28;20427;-63
2023/09/25 07:36:43;;;;;;;2.88;1.17;;;;;;;;;;2104222;28;20044;-63
2023/09/25 07:38:02;;;;;;;1.55;1.05;;;;;;;;;;2105428;28;20029;-63
2023/09/25 07:39:22;;;;;;;3.08;1.17;;;;;;;;;;2106007;28;20028;-68
2023/09/25 07:40:41;;;;;;;3.03;1.35;;;;;;;;;;2105847;28;20099;-63
2023/09/25 07:42:01;;;;;;;2.03;1.10;;;;;;;;;;2104781;28;21024;-63
2023/09/25 07:43:20;;;;;;;3.20;1.20;;;;;;;;;;2105328;28;20480;-63
2023/09/25 07:44:39;;;;;;;2.38;1.40;;;;;;;;;;2104806;28;20110;-64
2023/09/25 07:45:59;;;;;;;4.47;1.50;;;;;;;;;;2105185;28;20276;-64
2023/09/25 07:47:19;;;;;;;4.15;1.65;;;;;;;;;;2103921;28;20047;-64
2023/09/25 07:48:38;;;;;;;4.28;1.75;;;;;;;;;;2103863;28;20024;-63
2023/09/25 07:49:57;;;;;;;3.70;1.20;;;;;;;;;;2106254;28;20427;-63
2023/09/25 07:51:17;;;;;;;3.58;1.25;;;;;;;;;;2104368;28;20492;-64
2023/09/25 07:52:39;;;;;;;3.67;1.27;;;;;;;;;;2104555;28;20020;-65
2023/09/25 07:53:59;;;;;;;1.20;0.90;;;;;;;;;;2103849;28;20036;-64
2023/09/25 07:55:18;;;;;;;3.65;1.27;;;;;;;;;;2104630;28;20032;-63
2023/09/25 07:56:37;;;;;;;3.22;1.27;;;;;;;;;;2106005;28;20028;-64